Time;durP1;ratioP1;P1;durP2;ratioP2;P2;SDS_P1;SDS_P2;PMS_P1;PMS_P2;Temp;Humidity;BMP_temperature;BMP_pressure;BME280_temperature;BME280_humidity;BME280_pressure;Samples;Min_cycle;Max_cycle;Signal;HPM_P1;HPM_P2
2023/12/23 00:02:21;;;;;;;;;;;;;;;2.08;100.00;93986.19;5113655;28;1473;-59
2023/12/23 00:04:47;;;;;;;;;;;;;;;2.08;99.99;93989.66;5131678;27;1216;-58
2023/12/23 00:07:14;;;;;;;;;;;;;;;1.94;100.00;93985.63;5134194;27;1067;-59
2023/12/23 00:09:41;;;;;;;;;;;;;;;2.07;100.00;93980.09;5134080;27;1909;-59
2023/12/23 00:12:09;;;;;;;;;;;;;;;2.00;99.49;93976.34;5134082;27;1086;-59
2023/12/23 00:14:36;;;;;;;;;;;;;;;2.05;100.00;93971.50;5134339;27;988;-58
2023/12/23 00:17:02;;;;;;;;;;;;;;;1.96;100.00;93982.88;5134224;27;977;-58
2023/12/23 00:19:28;;;;;;;;;;;;;;;2.06;100.00;93985.50;5133996;27;1040;-58
2023/12/23 00:21:57;;;;;;;;;;;;;;;2.15;100.00;93997.88;5134117;27;976;-58
2023/12/23 00:24:29;;;;;;;;;;;;;;;2.23;100.00;94005.09;5133932;27;984;-57
2023/12/23 00:26:57;;;;;;;;;;;;;;;2.07;99.55;94014.38;5134294;27;1044;-58
2023/12/23 00:29:26;;;;;;;;;;;;;;;1.85;100.00;94015.44;5133990;27;1917;-59
2023/12/23 00:31:52;;;;;;;;;;;;;;;1.72;100.00;94006.97;5134252;27;1031;-59
2023/12/23 00:34:18;;;;;;;;;;;;;;;1.80;100.00;94030.81;5133841;27;1057;-59
2023/12/23 00:36:44;;;;;;;;;;;;;;;2.01;100.00;94033.38;5134526;27;1102;-58
2023/12/23 00:39:10;;;;;;;;;;;;;;;2.06;100.00;94025.88;5138256;27;965;-59
2023/12/23 00:41:37;;;;;;;;;;;;;;;1.78;100.00;94021.41;5138197;27;1071;-59
2023/12/23 00:44:03;;;;;;;;;;;;;;;1.75;100.00;94017.25;5138224;27;972;-59
2023/12/23 00:46:29;;;;;;;;;;;;;;;1.71;100.00;94011.41;5137983;27;1063;-59
2023/12/23 00:48:55;;;;;;;;;;;;;;;1.83;100.00;94024.47;5137744;27;1974;-59
2023/12/23 00:51:21;;;;;;;;;;;;;;;1.95;100.00;94015.47;5137733;27;1084;-59
2023/12/23 00:53:47;;;;;;;;;;;;;;;1.76;98.82;94013.63;5137952;27;968;-58
2023/12/23 00:56:22;;;;;;;;;;;;;;;1.64;100.00;94017.34;5137786;27;1007;-58
2023/12/23 00:58:48;;;;;;;;;;;;;;;1.51;99.64;93993.88;5137848;27;1052;-58
2023/12/23 01:01:14;;;;;;;;;;;;;;;1.30;100.00;93986.88;5137620;27;1071;-58
2023/12/23 01:03:40;;;;;;;;;;;;;;;1.23;100.00;93991.00;5129274;27;1168;-59
2023/12/23 01:06:06;;;;;;;;;;;;;;;1.38;100.00;93985.38;5116908;28;1092;-58
2023/12/23 01:08:32;;;;;;;;;;;;;;;1.31;100.00;93995.59;5116639;28;1914;-58
2023/12/23 01:10:59;;;;;;;;;;;;;;;1.41;100.00;93977.22;5117055;28;965;-59
2023/12/23 01:13:25;;;;;;;;;;;;;;;1.51;100.00;93963.09;5116744;28;1036;-58
2023/12/23 01:15:51;;;;;;;;;;;;;;;1.74;100.00;93963.69;5116744;28;1083;-58
2023/12/23 01:18:17;;;;;;;;;;;;;;;1.68;100.00;93958.13;5116589;28;1123;-58
2023/12/23 01:20:43;;;;;;;;;;;;;;;1.35;100.00;93987.31;5116973;28;1023;-58
2023/12/23 01:23:09;;;;;;;;;;;;;;;1.16;100.00;93969.66;5116562;28;977;-58
2023/12/23 01:25:35;;;;;;;;;;;;;;;1.28;100.00;93970.38;5116786;28;1068;-58
2023/12/23 01:28:04;;;;;;;;;;;;;;;1.17;100.00;93962.59;5116783;28;1917;-58
2023/12/23 01:30:31;;;;;;;;;;;;;;;1.04;100.00;93965.44;5116549;28;1038;-59
2023/12/23 01:32:57;;;;;;;;;;;;;;;1.27;100.00;93962.63;5116585;28;1029;-59
2023/12/23 01:35:23;;;;;;;;;;;;;;;1.39;100.00;93966.81;5116376;28;1285;-58
2023/12/23 01:37:49;;;;;;;;;;;;;;;1.17;100.00;93957.31;5116605;28;1122;-58
2023/12/23 01:40:15;;;;;;;;;;;;;;;1.14;100.00;93949.72;5116476;28;1040;-58
2023/12/23 01:42:41;;;;;;;;;;;;;;;1.32;100.00;93953.34;5116589;28;1044;-58
2023/12/23 01:45:07;;;;;;;;;;;;;;;1.07;99.49;93945.94;5116331;28;1035;-58
2023/12/23 01:47:34;;;;;;;;;;;;;;;1.06;100.00;93949.53;5115882;28;1222;-59
2023/12/23 01:50:04;;;;;;;;;;;;;;;0.92;100.00;93948.91;5115095;28;1987;-58
2023/12/23 01:52:31;;;;;;;;;;;;;;;1.24;100.00;93945.28;5116506;28;1032;-58
2023/12/23 01:54:57;;;;;;;;;;;;;;;1.06;100.00;93942.44;5116281;28;1060;-59
2023/12/23 01:57:24;;;;;;;;;;;;;;;1.05;99.44;93937.34;5115940;28;1103;-58
2023/12/23 01:59:50;;;;;;;;;;;;;;;0.98;99.16;93945.75;5116214;28;1059;-59
2023/12/23 02:02:16;;;;;;;;;;;;;;;0.97;100.00;93928.31;5116089;28;1062;-59
2023/12/23 02:04:42;;;;;;;;;;;;;;;1.03;100.00;93928.75;5133086;27;1164;-59
2023/12/23 02:07:08;;;;;;;;;;;;;;;0.89;100.00;93915.00;5136730;27;1011;-58
2023/12/23 02:09:35;;;;;;;;;;;;;;;1.06;100.00;93924.03;5136123;27;1984;-58
2023/12/23 02:12:06;;;;;;;;;;;;;;;1.19;100.00;93910.63;5136260;27;1039;-58
2023/12/23 02:14:38;;;;;;;;;;;;;;;0.98;100.00;93906.25;5135920;27;1104;-59
2023/12/23 02:17:04;;;;;;;;;;;;;;;0.99;100.00;93915.03;5136192;27;985;-59
2023/12/23 02:19:30;;;;;;;;;;;;;;;1.06;100.00;93925.81;5136253;27;1043;-58
2023/12/23 02:21:56;;;;;;;;;;;;;;;1.06;100.00;93913.50;5135138;27;973;-58
2023/12/23 02:24:22;;;;;;;;;;;;;;;0.83;99.95;93912.88;5135953;27;1036;-58
2023/12/23 02:26:50;;;;;;;;;;;;;;;0.89;100.00;93906.25;5136259;27;1052;-58
2023/12/23 02:29:18;;;;;;;;;;;;;;;0.98;100.00;93901.00;5135845;27;1990;-58
2023/12/23 02:31:44;;;;;;;;;;;;;;;0.69;100.00;93900.09;5135911;27;1099;-58
2023/12/23 02:34:11;;;;;;;;;;;;;;;0.83;100.00;93894.44;5135785;27;1103;-58
2023/12/23 02:36:38;;;;;;;;;;;;;;;0.87;100.00;93885.31;5135811;27;901;-58
2023/12/23 02:39:04;;;;;;;;;;;;;;;0.80;99.55;93886.84;5135769;27;1083;-58
2023/12/23 02:41:30;;;;;;;;;;;;;;;0.76;100.00;93883.63;5135716;27;1043;-58
2023/12/23 02:43:56;;;;;;;;;;;;;;;0.72;100.00;93876.13;5135944;27;1056;-60
2023/12/23 02:46:21;;;;;;;;;;;;;;;0.85;100.00;93887.25;5135556;27;1048;-59
2023/12/23 02:48:47;;;;;;;;;;;;;;;1.15;100.00;93886.38;5135202;27;1901;-59
2023/12/23 02:51:13;;;;;;;;;;;;;;;1.21;100.00;93871.00;5135638;27;1008;-59
2023/12/23 02:53:39;;;;;;;;;;;;;;;1.15;99.99;93878.47;5135649;27;995;-59
2023/12/23 02:56:06;;;;;;;;;;;;;;;1.06;100.00;93865.28;5135504;27;996;-59
2023/12/23 02:58:31;;;;;;;;;;;;;;;1.27;100.00;93879.22;5135582;27;1049;-58
2023/12/23 03:00:57;;;;;;;;;;;;;;;1.13;100.00;93872.50;5135456;27;1042;-59
2023/12/23 03:03:23;;;;;;;;;;;;;;;1.13;100.00;93884.84;5129207;27;1152;-59
2023/12/23 03:05:49;;;;;;;;;;;;;;;1.24;100.00;93891.81;5114833;28;1040;-58
2023/12/23 03:08:15;;;;;;;;;;;;;;;1.21;100.00;93892.88;5114597;28;1901;-59
2023/12/23 03:10:41;;;;;;;;;;;;;;;0.99;100.00;93888.69;5114598;28;1040;-59
2023/12/23 03:13:07;;;;;;;;;;;;;;;0.86;100.00;93883.66;5114476;28;1084;-60
2023/12/23 03:15:33;;;;;;;;;;;;;;;1.05;100.00;93884.69;5114322;28;1092;-60
2023/12/23 03:17:59;;;;;;;;;;;;;;;1.20;100.00;93891.25;5114347;28;1052;-59
2023/12/23 03:20:26;;;;;;;;;;;;;;;1.41;100.00;93898.22;5114630;28;1048;-59
2023/12/23 03:22:52;;;;;;;;;;;;;;;1.41;100.00;93893.78;5114739;28;1077;-60
2023/12/23 03:25:18;;;;;;;;;;;;;;;1.45;100.00;93879.34;5114552;28;1047;-59
2023/12/23 03:27:44;;;;;;;;;;;;;;;1.16;99.77;93889.84;5114589;28;992;-59
2023/12/23 03:30:10;;;;;;;;;;;;;;;1.10;100.00;93896.50;5114107;28;1910;-58
2023/12/23 03:32:36;;;;;;;;;;;;;;;1.03;100.00;93891.91;5114189;28;999;-60
2023/12/23 03:35:02;;;;;;;;;;;;;;;0.88;100.00;93881.72;5113161;28;1043;-59
2023/12/23 03:37:28;;;;;;;;;;;;;;;0.86;100.00;93880.22;5114066;28;913;-60
2023/12/23 03:39:54;;;;;;;;;;;;;;;1.05;100.00;93884.69;5114038;28;1075;-60
2023/12/23 03:42:20;;;;;;;;;;;;;;;1.27;100.00;93889.75;5113860;28;1060;-60
2023/12/23 03:44:46;;;;;;;;;;;;;;;1.11;100.00;93879.72;5114057;28;1065;-59
2023/12/23 03:47:12;;;;;;;;;;;;;;;1.28;100.00;93864.22;5113855;28;1084;-60
2023/12/23 03:49:38;;;;;;;;;;;;;;;1.23;100.00;93869.88;5114083;28;1910;-59
2023/12/23 03:52:04;;;;;;;;;;;;;;;1.35;100.00;93878.53;5114180;28;1046;-60
2023/12/23 03:54:30;;;;;;;;;;;;;;;1.25;100.00;93878.50;5114025;28;969;-59
2023/12/23 03:56:56;;;;;;;;;;;;;;;0.93;100.00;93874.28;5113801;28;1080;-60
2023/12/23 03:59:22;;;;;;;;;;;;;;;0.96;100.00;93868.72;5113776;28;1048;-60
2023/12/23 04:01:48;;;;;;;;;;;;;;;1.20;100.00;93867.53;5113683;28;1055;-59
2023/12/23 04:04:14;;;;;;;;;;;;;;;1.12;100.00;93877.91;5126788;27;1332;-59
2023/12/23 04:06:40;;;;;;;;;;;;;;;0.99;100.00;93870.28;5134156;27;1291;-59
2023/12/23 04:09:06;;;;;;;;;;;;;;;1.05;100.00;93866.28;5134430;27;2008;-59
2023/12/23 04:11:34;;;;;;;;;;;;;;;0.95;100.00;93872.34;5133709;27;960;-59
2023/12/23 04:14:00;;;;;;;;;;;;;;;1.01;100.00;93878.88;5134170;27;1049;-59
2023/12/23 04:16:26;;;;;;;;;;;;;;;1.23;100.00;93888.31;5133983;28;1103;-59
2023/12/23 04:18:53;;;;;;;;;;;;;;;1.30;99.71;93876.28;5121891;28;1133;-60
2023/12/23 04:21:19;;;;;;;;;;;;;;;1.06;99.39;93873.19;5113434;28;1044;-60
2023/12/23 04:23:45;;;;;;;;;;;;;;;0.78;100.00;93883.50;5113756;28;973;-60
2023/12/23 04:26:14;;;;;;;;;;;;;;;0.79;100.00;93900.94;5113689;28;1128;-60
2023/12/23 04:28:40;;;;;;;;;;;;;;;0.98;100.00;93906.25;5112488;28;1999;-64
2023/12/23 04:31:06;;;;;;;;;;;;;;;1.05;100.00;93900.50;5113410;28;1051;-64
2023/12/23 04:33:34;;;;;;;;;;;;;;;1.22;100.00;93909.53;5113628;28;1044;-64
2023/12/23 04:36:00;;;;;;;;;;;;;;;1.23;99.28;93912.00;5113367;28;1052;-66
2023/12/23 04:38:26;;;;;;;;;;;;;;;0.91;99.30;93923.56;5113513;28;1036;-66
2023/12/23 04:40:52;;;;;;;;;;;;;;;0.97;100.00;93944.09;5113304;28;1041;-63
2023/12/23 04:43:18;;;;;;;;;;;;;;;1.16;99.96;93918.81;5113361;28;1035;-63
2023/12/23 04:45:44;;;;;;;;;;;;;;;1.02;100.00;93929.69;5124519;28;1173;-60
2023/12/23 04:48:10;;;;;;;;;;;;;;;1.06;100.00;93925.81;5133646;28;1918;-59
2023/12/23 04:50:36;;;;;;;;;;;;;;;1.01;100.00;93935.94;5134091;27;1040;-58
2023/12/23 04:53:02;;;;;;;;;;;;;;;1.05;100.00;93927.63;5133935;28;1100;-59
2023/12/23 04:55:28;;;;;;;;;;;;;;;1.15;100.00;93931.13;5133902;27;1036;-59
2023/12/23 04:57:54;;;;;;;;;;;;;;;1.29;100.00;93926.44;5133864;28;985;-60
2023/12/23 05:00:20;;;;;;;;;;;;;;;1.08;100.00;93923.88;5133932;28;996;-59
2023/12/23 05:02:46;;;;;;;;;;;;;;;1.05;100.00;93948.69;5133386;28;1152;-60
2023/12/23 05:05:12;;;;;;;;;;;;;;;0.97;100.00;93951.16;5113281;28;1019;-60
2023/12/23 05:07:38;;;;;;;;;;;;;;;1.10;100.00;93935.97;5113490;28;1133;-60
2023/12/23 05:10:04;;;;;;;;;;;;;;;0.93;100.00;93940.06;5113295;28;1979;-60
2023/12/23 05:12:30;;;;;;;;;;;;;;;1.07;100.00;93938.88;5113128;28;1023;-60
2023/12/23 05:14:56;;;;;;;;;;;;;;;1.23;100.00;93924.34;5113121;28;1043;-59
2023/12/23 05:17:22;;;;;;;;;;;;;;;1.13;99.83;93925.16;5113237;28;992;-59
2023/12/23 05:19:48;;;;;;;;;;;;;;;0.76;100.00;93930.16;5113097;28;1099;-60
2023/12/23 05:22:14;;;;;;;;;;;;;;;0.84;100.00;93950.56;5113407;28;1036;-60
2023/12/23 05:24:42;;;;;;;;;;;;;;;0.83;100.00;93928.66;5115073;28;976;-60
2023/12/23 05:27:08;;;;;;;;;;;;;;;0.86;100.00;93938.91;5116644;28;1020;-60
2023/12/23 05:29:34;;;;;;;;;;;;;;;0.96;100.00;93944.22;5116752;28;1981;-59
2023/12/23 05:32:03;;;;;;;;;;;;;;;1.02;100.00;93932.34;5116860;28;957;-60
2023/12/23 05:34:29;;;;;;;;;;;;;;;1.17;100.00;93950.25;5116529;28;1867;-59
2023/12/23 05:36:55;;;;;;;;;;;;;;;1.30;100.00;93952.66;5116488;28;1048;-60
2023/12/23 05:39:20;;;;;;;;;;;;;;;1.33;100.00;93960.28;5116319;28;1048;-60
2023/12/23 05:41:46;;;;;;;;;;;;;;;1.49;100.00;93943.97;5116702;28;1000;-60
2023/12/23 05:44:12;;;;;;;;;;;;;;;1.51;100.00;93955.19;5116563;28;1007;-59
2023/12/23 05:46:38;;;;;;;;;;;;;;;1.62;100.00;93962.16;5116495;28;1234;-60
2023/12/23 05:49:04;;;;;;;;;;;;;;;1.41;99.42;93943.81;5116146;28;2241;-60
2023/12/23 05:51:30;;;;;;;;;;;;;;;1.20;100.00;93959.69;5116331;28;999;-59
2023/12/23 05:53:56;;;;;;;;;;;;;;;1.11;100.00;93942.88;5116390;28;1039;-59
2023/12/23 05:56:22;;;;;;;;;;;;;;;1.12;100.00;93941.06;5116243;28;976;-59
2023/12/23 05:58:48;;;;;;;;;;;;;;;1.45;100.00;93939.13;5115966;28;1040;-58
2023/12/23 06:01:14;;;;;;;;;;;;;;;1.59;100.00;93943.16;5115802;28;2148;-58
2023/12/23 06:03:40;;;;;;;;;;;;;;;1.59;100.00;93954.50;5124092;27;1212;-58
2023/12/23 06:06:06;;;;;;;;;;;;;;;1.07;98.91;93956.47;5136614;27;1060;-59
2023/12/23 06:08:32;;;;;;;;;;;;;;;1.13;100.00;93943.59;5136346;27;1902;-59
2023/12/23 06:10:58;;;;;;;;;;;;;;;1.33;100.00;93968.19;5136658;27;980;-58
2023/12/23 06:13:25;;;;;;;;;;;;;;;1.51;100.00;93970.16;5136561;27;969;-58
2023/12/23 06:15:51;;;;;;;;;;;;;;;1.62;100.00;93967.41;5136016;27;1048;-59
2023/12/23 06:18:17;;;;;;;;;;;;;;;1.78;100.00;93972.16;5136042;27;1048;-59
2023/12/23 06:20:43;;;;;;;;;;;;;;;2.00;99.58;93984.25;5136178;27;1107;-60
2023/12/23 06:23:09;;;;;;;;;;;;;;;2.00;99.59;93986.06;5135691;27;1047;-59
2023/12/23 06:25:35;;;;;;;;;;;;;;;1.68;99.02;93995.03;5135753;27;988;-59
2023/12/23 06:28:01;;;;;;;;;;;;;;;1.79;100.00;93983.56;5136223;27;1991;-59
2023/12/23 06:30:27;;;;;;;;;;;;;;;1.85;99.93;93985.63;5135760;27;968;-59
2023/12/23 06:32:53;;;;;;;;;;;;;;;1.75;100.00;93983.81;5135866;27;1087;-59
2023/12/23 06:35:20;;;;;;;;;;;;;;;1.73;100.00;94001.56;5135622;27;1020;-59
2023/12/23 06:37:46;;;;;;;;;;;;;;;1.63;100.00;94005.13;5135842;27;1102;-58
2023/12/23 06:40:12;;;;;;;;;;;;;;;1.86;100.00;93998.69;5135667;27;1028;-58
2023/12/23 06:42:38;;;;;;;;;;;;;;;2.12;99.87;93996.31;5136253;27;957;-59
2023/12/23 06:45:04;;;;;;;;;;;;;;;3.36;95.93;93982.31;5135561;27;1114;-59
2023/12/23 06:47:30;;;;;;;;;;;;;;;3.94;88.80;93989.13;5135336;27;1209;-59
2023/12/23 06:49:56;;;;;;;;;;;;;;;3.21;92.22;94009.22;5135671;27;1913;-59
2023/12/23 06:52:22;;;;;;;;;;;;;;;2.88;95.19;94005.28;5135445;27;1087;-58
2023/12/23 06:54:48;;;;;;;;;;;;;;;3.29;95.48;93982.09;5134271;27;1024;-59
2023/12/23 06:57:14;;;;;;;;;;;;;;;7.38;76.72;93995.03;5135369;27;1043;-58
2023/12/23 06:59:44;;;;;;;;;;;;;;;9.46;67.14;94008.63;5135300;27;988;-58
2023/12/23 07:02:10;;;;;;;;;;;;;;;11.08;58.01;94041.47;5135595;27;1003;-59
2023/12/23 07:04:35;;;;;;;;;;;;;;;11.48;56.77;94036.47;5119358;27;1212;-58
2023/12/23 07:07:01;;;;;;;;;;;;;;;12.33;55.08;94030.22;5114619;28;1039;-58
2023/12/23 07:09:27;;;;;;;;;;;;;;;13.73;49.68;94043.94;5114532;28;1918;-58
2023/12/23 07:11:53;;;;;;;;;;;;;;;10.30;57.78;94038.56;5114632;28;913;-58
2023/12/23 07:14:20;;;;;;;;;;;;;;;7.49;70.10;94017.78;5114394;28;885;-58
2023/12/23 07:16:46;;;;;;;;;;;;;;;6.10;77.43;94016.75;5114830;28;1019;-59
2023/12/23 07:19:14;;;;;;;;;;;;;;;5.34;81.36;94036.13;5114569;28;969;-58
2023/12/23 07:21:40;;;;;;;;;;;;;;;5.40;82.06;94038.13;5114720;28;1059;-59
2023/12/23 07:24:06;;;;;;;;;;;;;;;5.01;84.66;94027.97;5114508;28;977;-58
2023/12/23 07:26:34;;;;;;;;;;;;;;;4.49;87.77;94026.84;5114382;28;1048;-59
2023/12/23 07:29:01;;;;;;;;;;;;;;;4.20;89.81;94020.97;5114143;28;1913;-58
2023/12/23 07:31:32;;;;;;;;;;;;;;;4.08;91.11;94030.94;5114121;28;1572;-59
2023/12/23 07:33:58;;;;;;;;;;;;;;;3.84;92.93;94034.97;5114152;28;1020;-59
2023/12/23 07:36:24;;;;;;;;;;;;;;;4.07;92.27;94045.97;5114068;27;1003;-59
2023/12/23 07:38:50;;;;;;;;;;;;;;;4.15;91.52;94053.16;5114164;28;968;-59
2023/12/23 07:41:16;;;;;;;;;;;;;;;4.07;92.07;94061.00;5113913;28;925;-58
2023/12/23 07:43:42;;;;;;;;;;;;;;;4.33;90.36;94066.41;5112788;28;992;-59
2023/12/23 07:46:08;;;;;;;;;;;;;;;4.20;91.10;94034.19;5113758;28;965;-59
2023/12/23 07:48:34;;;;;;;;;;;;;;;3.96;92.18;94042.69;5113469;28;1989;-59
2023/12/23 07:51:07;;;;;;;;;;;;;;;3.89;93.08;94042.47;5114051;28;956;-59
2023/12/23 07:53:33;;;;;;;;;;;;;;;3.77;95.26;94038.34;5113727;28;1021;-59
2023/12/23 07:55:59;;;;;;;;;;;;;;;3.54;97.06;94051.94;5113765;28;1051;-59
2023/12/23 07:58:26;;;;;;;;;;;;;;;3.53;95.41;94074.06;5112473;28;1103;-59
2023/12/23 08:00:51;;;;;;;;;;;;;;;3.26;96.67;94075.69;5114038;28;1021;-59
2023/12/23 08:03:18;;;;;;;;;;;;;;;3.36;96.39;94067.72;5118579;27;1219;-59
2023/12/23 08:05:44;;;;;;;;;;;;;;;3.87;94.52;94084.06;5134539;27;956;-58
2023/12/23 08:08:10;;;;;;;;;;;;;;;4.00;94.84;94081.91;5134224;27;1992;-58
2023/12/23 08:10:39;;;;;;;;;;;;;;;4.01;94.39;94059.78;5134110;27;1056;-58
2023/12/23 08:13:06;;;;;;;;;;;;;;;4.17;93.52;94082.94;5133247;28;1060;-58
2023/12/23 08:15:32;;;;;;;;;;;;;;;4.09;94.40;94096.91;5134318;27;980;-58
2023/12/23 08:17:58;;;;;;;;;;;;;;;4.28;93.25;94100.41;5134156;27;1048;-58
2023/12/23 08:20:24;;;;;;;;;;;;;;;4.27;93.26;94102.25;5134051;27;1126;-58
2023/12/23 08:22:50;;;;;;;;;;;;;;;4.50;92.69;94085.94;5134160;27;1087;-58
2023/12/23 08:25:16;;;;;;;;;;;;;;;4.48;93.65;94088.72;5134187;27;1044;-58
2023/12/23 08:27:42;;;;;;;;;;;;;;;4.28;95.28;94100.41;5134001;28;1037;-59
2023/12/23 08:30:08;;;;;;;;;;;;;;;4.52;94.63;94107.78;5133910;27;1983;-59
2023/12/23 08:32:35;;;;;;;;;;;;;;;4.76;93.27;94114.31;5134189;28;1043;-59
2023/12/23 08:35:01;;;;;;;;;;;;;;;5.01;92.56;94118.03;5132793;28;960;-59
2023/12/23 08:37:27;;;;;;;;;;;;;;;5.16;91.29;94110.34;5133861;28;1083;-60
2023/12/23 08:39:53;;;;;;;;;;;;;;;5.44;91.42;94122.50;5133907;27;972;-58
2023/12/23 08:42:20;;;;;;;;;;;;;;;5.21;90.85;94135.41;5133758;27;1104;-58
2023/12/23 08:44:47;;;;;;;;;;;;;;;5.14;91.61;94122.91;5133874;27;1024;-58
2023/12/23 08:47:13;;;;;;;;;;;;;;;5.28;90.23;94112.59;5133815;27;1226;-58
2023/12/23 08:49:39;;;;;;;;;;;;;;;5.61;89.67;94118.13;5133870;28;1909;-58
2023/12/23 08:52:06;;;;;;;;;;;;;;;5.85;88.68;94119.25;5133926;27;1138;-57
2023/12/23 08:54:32;;;;;;;;;;;;;;;6.11;87.04;94113.09;5133965;27;973;-58
2023/12/23 08:56:58;;;;;;;;;;;;;;;6.03;88.39;94111.25;5132520;28;1273;-58
2023/12/23 08:59:24;;;;;;;;;;;;;;;6.21;87.05;94121.78;5136988;27;1024;-59
2023/12/23 09:01:50;;;;;;;;;;;;;;;6.49;86.89;94116.22;5136467;27;1020;-58
2023/12/23 09:04:18;;;;;;;;;;;;;;;7.08;85.52;94103.75;5124336;27;1188;-58
2023/12/23 09:06:44;;;;;;;;;;;;;;;7.35;81.22;94104.41;5117040;28;1968;-58
2023/12/23 09:09:10;;;;;;;;;;;;;;;7.38;81.39;94120.84;5116791;28;1914;-58
2023/12/23 09:11:42;;;;;;;;;;;;;;;7.76;80.33;94120.31;5117168;28;2100;-58
2023/12/23 09:14:09;;;;;;;;;;;;;;;8.06;79.90;94125.91;5128734;27;3858;-58
2023/12/23 09:16:35;;;;;;;;;;;;;;;8.48;79.00;94132.75;5137632;27;1110;-57
2023/12/23 09:19:03;;;;;;;;;;;;;;;8.51;78.55;94132.44;5137649;27;1047;-58
2023/12/23 09:21:29;;;;;;;;;;;;;;;8.80;77.50;94121.13;5137546;27;1063;-58
2023/12/23 09:23:55;;;;;;;;;;;;;;;8.92;77.62;94117.06;5137236;27;1043;-57
2023/12/23 09:26:24;;;;;;;;;;;;;;;9.07;77.99;94122.47;5137131;27;1019;-58
2023/12/23 09:28:50;;;;;;;;;;;;;;;9.87;74.87;94133.66;5137254;27;1986;-58
2023/12/23 09:31:16;;;;;;;;;;;;;;;9.68;74.94;94124.34;5136993;27;1197;-58
2023/12/23 09:33:42;;;;;;;;;;;;;;;8.94;78.74;94135.53;5136048;27;1040;-58
2023/12/23 09:36:08;;;;;;;;;;;;;;;9.12;78.05;94149.41;5137372;27;1014;-58
2023/12/23 09:38:34;;;;;;;;;;;;;;;9.63;77.46;94161.41;5136829;27;1129;-58
2023/12/23 09:41:00;;;;;;;;;;;;;;;9.87;76.23;94150.50;5137186;27;1033;-58
2023/12/23 09:43:26;;;;;;;;;;;;;;;9.73;77.66;94143.28;5135607;27;1094;-58
2023/12/23 09:45:54;;;;;;;;;;;;;;;10.52;73.42;94151.69;5137131;27;971;-58
2023/12/23 09:48:20;;;;;;;;;;;;;;;10.71;72.91;94149.47;5136384;27;1914;-58
2023/12/23 09:50:46;;;;;;;;;;;;;;;10.68;72.95;94147.16;5137098;27;968;-58
2023/12/23 09:53:13;;;;;;;;;;;;;;;10.64;75.68;94156.56;5136592;27;988;-58
2023/12/23 09:55:42;;;;;;;;;;;;;;;11.07;75.06;94145.97;5136947;27;1035;-58
2023/12/23 09:58:08;;;;;;;;;;;;;;;11.20;73.34;94132.75;5136549;27;913;-58
2023/12/23 10:00:34;;;;;;;;;;;;;;;11.58;72.26;94131.69;5136766;27;964;-57
2023/12/23 10:03:00;;;;;;;;;;;;;;;11.71;72.46;94118.41;5136604;27;1137;-58
2023/12/23 10:05:27;;;;;;;;;;;;;;;11.90;70.84;94124.97;5136375;27;1043;-58
2023/12/23 10:07:57;;;;;;;;;;;;;;;12.30;69.57;94138.66;5136417;27;1220;-57
2023/12/23 10:10:23;;;;;;;;;;;;;;;12.57;67.27;94152.22;5135726;27;1983;-58
2023/12/23 10:12:49;;;;;;;;;;;;;;;12.49;67.38;94129.91;5136655;27;968;-58
2023/12/23 10:15:16;;;;;;;;;;;;;;;12.56;67.11;94124.59;5135163;27;974;-59
2023/12/23 10:17:42;;;;;;;;;;;;;;;12.70;63.27;94123.59;5136280;27;981;-58
2023/12/23 10:20:10;;;;;;;;;;;;;;;12.89;63.86;94134.63;5135284;27;4378;-58
2023/12/23 10:22:36;;;;;;;;;;;;;;;12.95;64.47;94144.56;5135123;27;4356;-57
2023/12/23 10:25:02;;;;;;;;;;;;;;;13.29;63.74;94169.66;5136304;27;1035;-58
2023/12/23 10:27:31;;;;;;;;;;;;;;;13.24;64.91;94154.16;5136141;27;933;-56
2023/12/23 10:29:59;;;;;;;;;;;;;;;13.28;64.82;94155.41;5135885;27;1909;-57
2023/12/23 10:32:26;;;;;;;;;;;;;;;13.68;62.65;94168.13;5135955;27;1043;-57
2023/12/23 10:34:56;;;;;;;;;;;;;;;13.22;63.85;94174.16;5129926;27;1259;-59
2023/12/23 10:37:23;;;;;;;;;;;;;;;13.50;63.83;94163.34;5115783;28;1104;-60
2023/12/23 10:39:54;;;;;;;;;;;;;;;13.97;63.66;94149.97;5115279;28;1040;-60
2023/12/23 10:42:22;;;;;;;;;;;;;;;13.93;61.84;94152.25;5115338;27;969;-59
2023/12/23 10:48:11;;;;;;;;;;;;;;;14.21;59.21;94137.78;5105927;28;1246;-60
2023/12/23 10:50:38;;;;;;;;;;;;;;;14.34;59.56;94137.75;5113860;28;1099;-60
2023/12/23 10:53:06;;;;;;;;;;;;;;;14.30;60.65;94138.38;5115116;28;963;-59
2023/12/23 10:55:33;;;;;;;;;;;;;;;14.34;59.29;94144.97;5115128;28;1047;-60
2023/12/23 10:58:00;;;;;;;;;;;;;;;14.66;57.60;94167.50;5115123;28;957;-60
2023/12/23 11:00:26;;;;;;;;;;;;;;;14.80;57.38;94169.16;5113634;28;973;-61
2023/12/23 11:02:57;;;;;;;;;;;;;;;14.67;56.60;94181.81;5115320;27;1149;-60
2023/12/23 11:05:23;;;;;;;;;;;;;;;14.46;57.06;94194.41;5135200;27;1055;-59
2023/12/23 11:07:51;;;;;;;;;;;;;;;14.69;58.28;94174.34;5135134;27;1032;-58
2023/12/23 11:10:18;;;;;;;;;;;;;;;14.83;55.70;94182.19;5134890;27;1905;-60
2023/12/23 11:12:44;;;;;;;;;;;;;;;14.73;55.75;94172.88;5133893;27;4603;-59
2023/12/23 11:15:10;;;;;;;;;;;;;;;14.68;57.23;94165.44;5135246;27;1012;-60
2023/12/23 11:17:41;;;;;;;;;;;;;;;14.62;59.63;94163.59;5135192;27;1229;-61
2023/12/23 11:20:07;;;;;;;;;;;;;;;14.68;58.57;94172.69;5135019;27;1047;-60
2023/12/23 11:22:38;;;;;;;;;;;;;;;14.67;57.85;94155.72;5134806;27;1107;-61
2023/12/23 11:25:24;;;;;;;;;;;;;;;13.99;60.42;94189.03;5134846;27;981;-61
2023/12/23 11:27:50;;;;;;;;;;;;;;;13.13;61.71;94186.09;5135143;27;1017;-60
2023/12/23 11:30:16;;;;;;;;;;;;;;;12.55;62.83;94183.75;5134644;27;1914;-61
2023/12/23 11:32:43;;;;;;;;;;;;;;;12.17;65.77;94198.34;5134941;27;972;-61
2023/12/23 11:35:13;;;;;;;;;;;;;;;11.94;65.79;94203.09;5134791;27;968;-61
2023/12/23 11:38:00;;;;;;;;;;;;;;;11.64;67.20;94189.81;5133435;27;1075;-61
2023/12/23 11:40:29;;;;;;;;;;;;;;;11.53;68.27;94224.09;5134566;27;1035;-61
2023/12/23 11:42:56;;;;;;;;;;;;;;;11.32;69.32;94206.16;5134516;27;1024;-60
2023/12/23 11:45:22;;;;;;;;;;;;;;;11.27;68.43;94194.38;5134462;27;1071;-60
2023/12/23 11:47:49;;;;;;;;;;;;;;;11.32;68.52;94194.59;5134394;27;1086;-60
2023/12/23 11:50:16;;;;;;;;;;;;;;;11.40;69.00;94199.03;5134304;27;1909;-60
2023/12/23 11:52:44;;;;;;;;;;;;;;;11.52;68.18;94195.66;5132841;27;1968;-59
2023/12/23 11:55:10;;;;;;;;;;;;;;;11.69;67.96;94203.44;5128232;27;1036;-60
2023/12/23 11:57:36;;;;;;;;;;;;;;;11.78;67.76;94196.09;5125248;27;1744;-59
2023/12/23 12:00:03;;;;;;;;;;;;;;;11.81;67.45;94201.91;5127604;27;2039;-59
2023/12/23 12:02:29;;;;;;;;;;;;;;;11.70;66.64;94207.78;5127191;27;1985;-60
2023/12/23 12:04:55;;;;;;;;;;;;;;;11.54;67.52;94216.88;5134515;27;1140;-60
2023/12/23 12:07:22;;;;;;;;;;;;;;;11.42;67.19;94197.81;5117247;27;2014;-59
2023/12/23 12:09:49;;;;;;;;;;;;;;;11.56;67.66;94198.78;5124924;27;2033;-59
2023/12/23 12:12:15;;;;;;;;;;;;;;;11.81;65.35;94201.09;5124548;27;2210;-60
2023/12/23 12:14:42;;;;;;;;;;;;;;;11.87;66.21;94203.81;5114031;28;970;-59
2023/12/23 12:17:08;;;;;;;;;;;;;;;11.67;67.57;94205.50;5120824;28;1392;-57
2023/12/23 12:19:34;;;;;;;;;;;;;;;11.56;68.44;94177.38;5125911;28;1114;-58
2023/12/23 12:22:00;;;;;;;;;;;;;;;11.46;68.34;94175.00;5134331;27;941;-59
2023/12/23 12:24:26;;;;;;;;;;;;;;;11.30;70.31;94172.56;5134446;27;980;-59
2023/12/23 12:26:53;;;;;;;;;;;;;;;11.33;69.25;94185.59;5134383;28;1041;-59
2023/12/23 12:29:20;;;;;;;;;;;;;;;11.23;70.38;94177.00;5134254;27;1999;-60
2023/12/23 12:31:46;;;;;;;;;;;;;;;11.09;68.96;94170.69;5134178;27;1003;-59
2023/12/23 12:34:12;;;;;;;;;;;;;;;10.89;69.31;94163.28;5137091;27;1083;-59
2023/12/23 12:36:38;;;;;;;;;;;;;;;10.75;70.30;94167.59;5138526;27;1051;-58
2023/12/23 12:39:04;;;;;;;;;;;;;;;10.72;69.43;94175.19;5138513;27;1027;-59
2023/12/23 12:41:31;;;;;;;;;;;;;;;10.61;70.04;94181.00;5138203;27;964;-59
2023/12/23 12:43:57;;;;;;;;;;;;;;;10.62;69.45;94175.44;5138137;27;1047;-59
2023/12/23 12:46:24;;;;;;;;;;;;;;;10.57;69.93;94185.88;5137983;27;1009;-58
2023/12/23 12:48:52;;;;;;;;;;;;;;;10.52;69.47;94183.75;5137687;27;1984;-59
2023/12/23 12:51:18;;;;;;;;;;;;;;;10.52;70.50;94183.75;5137905;27;995;-59
2023/12/23 12:53:46;;;;;;;;;;;;;;;10.35;69.29;94183.09;5138186;27;1003;-59
2023/12/23 12:56:14;;;;;;;;;;;;;;;10.27;69.67;94185.00;5138159;27;964;-59
2023/12/23 12:58:40;;;;;;;;;;;;;;;10.16;70.59;94188.94;5137836;27;1071;-59
2023/12/23 13:01:06;;;;;;;;;;;;;;;10.25;70.78;94203.06;5137812;27;1031;-59
2023/12/23 13:03:32;;;;;;;;;;;;;;;10.26;70.02;94208.22;5130801;27;1140;-59